sensor_id;sensor_type;location;lat;lon;timestamp;P1;durP1;ratioP1;P2;durP2;ratioP2
20340;SDS011;10328;50.042;8.238;2022-10-16T00:01:43;0.38;;;0.38;;
20340;SDS011;10328;50.042;8.238;2022-10-16T00:04:10;0.77;;;0.50;;
20340;SDS011;10328;50.042;8.238;2022-10-16T00:06:36;0.55;;;0.43;;
20340;SDS011;10328;50.042;8.238;2022-10-16T00:09:02;0.30;;;0.30;;
20340;SDS011;10328;50.042;8.238;2022-10-16T00:11:31;0.40;;;0.40;;
20340;SDS011;10328;50.042;8.238;2022-10-16T00:14:00;0.70;;;0.50;;
20340;SDS011;10328;50.042;8.238;2022-10-16T00:16:27;0.30;;;0.30;;
20340;SDS011;10328;50.042;8.238;2022-10-16T00:18:54;0.55;;;0.40;;
20340;SDS011;10328;50.042;8.238;2022-10-16T00:21:23;0.50;;;0.50;;
20340;SDS011;10328;50.042;8.238;2022-10-16T00:23:51;0.40;;;0.40;;
20340;SDS011;10328;50.042;8.238;2022-10-16T00:26:19;0.40;;;0.40;;
20340;SDS011;10328;50.042;8.238;2022-10-16T00:28:46;0.30;;;0.30;;
20340;SDS011;10328;50.042;8.238;2022-10-16T00:31:13;0.40;;;0.40;;
20340;SDS011;10328;50.042;8.238;2022-10-16T00:33:40;0.40;;;0.40;;
20340;SDS011;10328;50.042;8.238;2022-10-16T00:36:07;0.40;;;0.40;;
20340;SDS011;10328;50.042;8.238;2022-10-16T00:38:35;0.47;;;0.47;;
20340;SDS011;10328;50.042;8.238;2022-10-16T00:41:04;0.40;;;0.40;;
20340;SDS011;10328;50.042;8.238;2022-10-16T00:43:51;0.55;;;0.50;;
20340;SDS011;10328;50.042;8.238;2022-10-16T00:46:23;0.40;;;0.40;;
20340;SDS011;10328;50.042;8.238;2022-10-16T00:48:52;0.43;;;0.40;;
20340;SDS011;10328;50.042;8.238;2022-10-16T00:51:21;0.40;;;0.40;;
20340;SDS011;10328;50.042;8.238;2022-10-16T00:53:49;0.40;;;0.40;;
20340;SDS011;10328;50.042;8.238;2022-10-16T00:56:16;0.50;;;0.40;;
20340;SDS011;10328;50.042;8.238;2022-10-16T00:58:42;0.50;;;0.50;;
20340;SDS011;10328;50.042;8.238;2022-10-16T01:01:09;0.43;;;0.43;;
20340;SDS011;10328;50.042;8.238;2022-10-16T01:03:36;0.43;;;0.40;;
20340;SDS011;10328;50.042;8.238;2022-10-16T01:06:27;0.40;;;0.40;;
20340;SDS011;10328;50.042;8.238;2022-10-16T01:09:11;0.40;;;0.40;;
20340;SDS011;10328;50.042;8.238;2022-10-16T01:11:44;0.40;;;0.40;;
20340;SDS011;10328;50.042;8.238;2022-10-16T01:14:37;0.40;;;0.40;;
20340;SDS011;10328;50.042;8.238;2022-10-16T01:17:12;0.40;;;0.40;;
20340;SDS011;10328;50.042;8.238;2022-10-16T01:19:48;0.50;;;0.50;;
20340;SDS011;10328;50.042;8.238;2022-10-16T01:22:31;0.80;;;0.40;;
20340;SDS011;10328;50.042;8.238;2022-10-16T01:25:05;0.40;;;0.40;;
20340;SDS011;10328;50.042;8.238;2022-10-16T01:27:35;0.40;;;0.40;;
20340;SDS011;10328;50.042;8.238;2022-10-16T01:30:22;0.45;;;0.45;;
20340;SDS011;10328;50.042;8.238;2022-10-16T01:35:36;0.65;;;0.50;;
20340;SDS011;10328;50.042;8.238;2022-10-16T01:38:06;0.40;;;0.40;;
20340;SDS011;10328;50.042;8.238;2022-10-16T01:40:37;0.60;;;0.40;;
20340;SDS011;10328;50.042;8.238;2022-10-16T01:43:06;0.40;;;0.40;;
20340;SDS011;10328;50.042;8.238;2022-10-16T01:45:35;0.40;;;0.40;;
20340;SDS011;10328;50.042;8.238;2022-10-16T01:48:02;0.40;;;0.40;;
20340;SDS011;10328;50.042;8.238;2022-10-16T01:50:35;0.47;;;0.47;;
20340;SDS011;10328;50.042;8.238;2022-10-16T01:53:04;0.30;;;0.30;;
20340;SDS011;10328;50.042;8.238;2022-10-16T01:55:32;0.50;;;0.50;;
20340;SDS011;10328;50.042;8.238;2022-10-16T01:58:01;0.32;;;0.32;;
20340;SDS011;10328;50.042;8.238;2022-10-16T02:00:29;0.30;;;0.30;;
20340;SDS011;10328;50.042;8.238;2022-10-16T02:02:56;0.40;;;0.40;;
20340;SDS011;10328;50.042;8.238;2022-10-16T02:05:31;0.50;;;0.50;;
20340;SDS011;10328;50.042;8.238;2022-10-16T02:07:59;0.77;;;0.40;;
20340;SDS011;10328;50.042;8.238;2022-10-16T02:10:30;0.40;;;0.40;;
20340;SDS011;10328;50.042;8.238;2022-10-16T02:13:00;0.40;;;0.40;;
20340;SDS011;10328;50.042;8.238;2022-10-16T02:15:31;0.40;;;0.30;;
20340;SDS011;10328;50.042;8.238;2022-10-16T02:17:58;0.40;;;0.40;;
20340;SDS011;10328;50.042;8.238;2022-10-16T02:20:25;0.50;;;0.50;;
20340;SDS011;10328;50.042;8.238;2022-10-16T02:22:53;0.43;;;0.43;;
20340;SDS011;10328;50.042;8.238;2022-10-16T02:25:29;0.43;;;0.40;;
20340;SDS011;10328;50.042;8.238;2022-10-16T02:28:07;0.60;;;0.50;;
20340;SDS011;10328;50.042;8.238;2022-10-16T02:30:43;0.63;;;0.40;;
20340;SDS011;10328;50.042;8.238;2022-10-16T02:33:12;0.40;;;0.40;;
20340;SDS011;10328;50.042;8.238;2022-10-16T02:35:40;0.30;;;0.30;;
20340;SDS011;10328;50.042;8.238;2022-10-16T02:38:07;0.25;;;0.25;;
20340;SDS011;10328;50.042;8.238;2022-10-16T02:40:39;0.30;;;0.30;;
20340;SDS011;10328;50.042;8.238;2022-10-16T02:43:06;0.55;;;0.40;;
20340;SDS011;10328;50.042;8.238;2022-10-16T02:45:32;0.40;;;0.40;;
20340;SDS011;10328;50.042;8.238;2022-10-16T02:47:59;0.30;;;0.30;;
20340;SDS011;10328;50.042;8.238;2022-10-16T02:50:25;0.60;;;0.40;;
20340;SDS011;10328;50.042;8.238;2022-10-16T02:52:52;0.40;;;0.40;;
20340;SDS011;10328;50.042;8.238;2022-10-16T02:55:18;0.50;;;0.50;;
20340;SDS011;10328;50.042;8.238;2022-10-16T02:57:44;0.50;;;0.50;;
20340;SDS011;10328;50.042;8.238;2022-10-16T03:00:12;0.30;;;0.30;;
20340;SDS011;10328;50.042;8.238;2022-10-16T03:02:40;0.40;;;0.40;;
20340;SDS011;10328;50.042;8.238;2022-10-16T03:05:07;0.57;;;0.50;;
20340;SDS011;10328;50.042;8.238;2022-10-16T03:07:34;0.50;;;0.40;;
20340;SDS011;10328;50.042;8.238;2022-10-16T03:10:01;0.40;;;0.40;;
20340;SDS011;10328;50.042;8.238;2022-10-16T03:12:27;0.40;;;0.40;;
20340;SDS011;10328;50.042;8.238;2022-10-16T03:14:57;0.35;;;0.35;;
20340;SDS011;10328;50.042;8.238;2022-10-16T03:17:24;0.70;;;0.50;;
20340;SDS011;10328;50.042;8.238;2022-10-16T03:19:51;0.50;;;0.50;;
20340;SDS011;10328;50.042;8.238;2022-10-16T03:22:17;0.40;;;0.40;;
20340;SDS011;10328;50.042;8.238;2022-10-16T03:24:44;0.38;;;0.38;;
20340;SDS011;10328;50.042;8.238;2022-10-16T03:27:10;0.50;;;0.45;;
20340;SDS011;10328;50.042;8.238;2022-10-16T03:29:36;0.63;;;0.60;;
20340;SDS011;10328;50.042;8.238;2022-10-16T03:32:03;0.43;;;0.43;;
20340;SDS011;10328;50.042;8.238;2022-10-16T03:34:29;0.52;;;0.52;;
20340;SDS011;10328;50.042;8.238;2022-10-16T03:36:55;0.50;;;0.50;;
20340;SDS011;10328;50.042;8.238;2022-10-16T03:39:21;0.50;;;0.50;;
20340;SDS011;10328;50.042;8.238;2022-10-16T03:41:48;0.40;;;0.40;;
20340;SDS011;10328;50.042;8.238;2022-10-16T03:44:14;0.50;;;0.50;;
20340;SDS011;10328;50.042;8.238;2022-10-16T03:46:40;0.40;;;0.40;;
20340;SDS011;10328;50.042;8.238;2022-10-16T03:49:07;0.50;;;0.40;;
20340;SDS011;10328;50.042;8.238;2022-10-16T03:51:35;0.40;;;0.40;;
20340;SDS011;10328;50.042;8.238;2022-10-16T03:54:01;0.40;;;0.40;;
20340;SDS011;10328;50.042;8.238;2022-10-16T03:56:28;0.50;;;0.50;;
20340;SDS011;10328;50.042;8.238;2022-10-16T03:58:54;0.50;;;0.50;;
20340;SDS011;10328;50.042;8.238;2022-10-16T04:01:20;0.50;;;0.50;;
20340;SDS011;10328;50.042;8.238;2022-10-16T04:03:47;0.40;;;0.40;;
20340;SDS011;10328;50.042;8.238;2022-10-16T04:06:13;0.43;;;0.43;;
20340;SDS011;10328;50.042;8.238;2022-10-16T04:08:41;0.50;;;0.50;;
20340;SDS011;10328;50.042;8.238;2022-10-16T04:11:09;0.47;;;0.47;;
20340;SDS011;10328;50.042;8.238;2022-10-16T04:13:35;0.50;;;0.50;;
20340;SDS011;10328;50.042;8.238;2022-10-16T04:16:02;0.60;;;0.47;;
20340;SDS011;10328;50.042;8.238;2022-10-16T04:18:28;0.43;;;0.43;;
20340;SDS011;10328;50.042;8.238;2022-10-16T04:20:55;0.50;;;0.50;;
20340;SDS011;10328;50.042;8.238;2022-10-16T04:23:21;0.50;;;0.40;;
20340;SDS011;10328;50.042;8.238;2022-10-16T04:25:48;0.50;;;0.50;;
20340;SDS011;10328;50.042;8.238;2022-10-16T04:28:15;0.60;;;0.40;;
20340;SDS011;10328;50.042;8.238;2022-10-16T04:30:41;0.52;;;0.50;;
20340;SDS011;10328;50.042;8.238;2022-10-16T04:33:08;0.60;;;0.50;;
20340;SDS011;10328;50.042;8.238;2022-10-16T04:35:35;0.50;;;0.50;;
20340;SDS011;10328;50.042;8.238;2022-10-16T04:38:02;0.40;;;0.40;;
20340;SDS011;10328;50.042;8.238;2022-10-16T04:40:28;0.55;;;0.50;;
20340;SDS011;10328;50.042;8.238;2022-10-16T04:42:55;0.50;;;0.50;;
20340;SDS011;10328;50.042;8.238;2022-10-16T04:45:21;0.35;;;0.35;;
20340;SDS011;10328;50.042;8.238;2022-10-16T04:47:47;0.50;;;0.50;;
20340;SDS011;10328;50.042;8.238;2022-10-16T04:50:14;0.50;;;0.50;;
20340;SDS011;10328;50.042;8.238;2022-10-16T04:52:40;0.40;;;0.40;;
20340;SDS011;10328;50.042;8.238;2022-10-16T04:55:06;0.50;;;0.50;;
20340;SDS011;10328;50.042;8.238;2022-10-16T04:57:33;0.40;;;0.40;;
20340;SDS011;10328;50.042;8.238;2022-10-16T04:59:59;0.40;;;0.40;;
20340;SDS011;10328;50.042;8.238;2022-10-16T05:02:26;0.45;;;0.45;;
20340;SDS011;10328;50.042;8.238;2022-10-16T05:04:52;0.75;;;0.50;;
20340;SDS011;10328;50.042;8.238;2022-10-16T05:07:18;0.40;;;0.40;;
20340;SDS011;10328;50.042;8.238;2022-10-16T05:09:45;0.40;;;0.40;;
20340;SDS011;10328;50.042;8.238;2022-10-16T05:12:11;0.40;;;0.40;;
20340;SDS011;10328;50.042;8.238;2022-10-16T05:14:37;0.50;;;0.50;;
20340;SDS011;10328;50.042;8.238;2022-10-16T05:17:04;0.40;;;0.40;;
20340;SDS011;10328;50.042;8.238;2022-10-16T05:19:30;0.45;;;0.40;;
20340;SDS011;10328;50.042;8.238;2022-10-16T05:21:56;0.40;;;0.40;;
20340;SDS011;10328;50.042;8.238;2022-10-16T05:24:23;0.50;;;0.47;;
20340;SDS011;10328;50.042;8.238;2022-10-16T05:26:49;0.30;;;0.30;;
20340;SDS011;10328;50.042;8.238;2022-10-16T05:29:16;0.50;;;0.50;;
20340;SDS011;10328;50.042;8.238;2022-10-16T05:31:42;0.60;;;0.50;;
20340;SDS011;10328;50.042;8.238;2022-10-16T05:34:08;0.52;;;0.52;;
20340;SDS011;10328;50.042;8.238;2022-10-16T05:36:35;0.40;;;0.40;;
20340;SDS011;10328;50.042;8.238;2022-10-16T05:39:02;0.90;;;0.80;;
20340;SDS011;10328;50.042;8.238;2022-10-16T05:41:28;0.75;;;0.40;;
20340;SDS011;10328;50.042;8.238;2022-10-16T05:43:54;0.60;;;0.60;;
20340;SDS011;10328;50.042;8.238;2022-10-16T05:46:21;0.80;;;0.70;;
20340;SDS011;10328;50.042;8.238;2022-10-16T05:48:47;0.80;;;0.80;;
20340;SDS011;10328;50.042;8.238;2022-10-16T05:51:14;0.40;;;0.40;;
20340;SDS011;10328;50.042;8.238;2022-10-16T05:53:42;0.75;;;0.75;;
20340;SDS011;10328;50.042;8.238;2022-10-16T05:56:10;1.70;;;1.00;;
20340;SDS011;10328;50.042;8.238;2022-10-16T05:58:37;1.05;;;0.95;;
20340;SDS011;10328;50.042;8.238;2022-10-16T06:01:07;2.50;;;1.00;;
20340;SDS011;10328;50.042;8.238;2022-10-16T06:03:36;0.50;;;0.50;;
20340;SDS011;10328;50.042;8.238;2022-10-16T06:06:12;0.80;;;0.80;;
20340;SDS011;10328;50.042;8.238;2022-10-16T06:08:41;0.50;;;0.50;;
20340;SDS011;10328;50.042;8.238;2022-10-16T06:11:08;0.50;;;0.50;;
20340;SDS011;10328;50.042;8.238;2022-10-16T06:13:36;0.40;;;0.40;;
20340;SDS011;10328;50.042;8.238;2022-10-16T06:16:03;0.40;;;0.40;;
20340;SDS011;10328;50.042;8.238;2022-10-16T06:18:30;0.50;;;0.50;;
20340;SDS011;10328;50.042;8.238;2022-10-16T06:20:57;0.90;;;0.85;;
20340;SDS011;10328;50.042;8.238;2022-10-16T06:23:24;0.52;;;0.50;;
20340;SDS011;10328;50.042;8.238;2022-10-16T06:25:51;0.45;;;0.45;;
20340;SDS011;10328;50.042;8.238;2022-10-16T06:28:17;0.55;;;0.50;;
20340;SDS011;10328;50.042;8.238;2022-10-16T06:30:44;0.50;;;0.50;;
20340;SDS011;10328;50.042;8.238;2022-10-16T06:33:11;0.47;;;0.47;;
20340;SDS011;10328;50.042;8.238;2022-10-16T06:35:38;0.40;;;0.40;;
20340;SDS011;10328;50.042;8.238;2022-10-16T06:38:04;0.40;;;0.40;;
20340;SDS011;10328;50.042;8.238;2022-10-16T06:40:30;0.40;;;0.40;;
20340;SDS011;10328;50.042;8.238;2022-10-16T06:42:57;0.80;;;0.60;;
20340;SDS011;10328;50.042;8.238;2022-10-16T06:45:23;0.40;;;0.40;;
20340;SDS011;10328;50.042;8.238;2022-10-16T06:47:49;0.50;;;0.50;;
20340;SDS011;10328;50.042;8.238;2022-10-16T06:50:16;0.57;;;0.50;;
20340;SDS011;10328;50.042;8.238;2022-10-16T06:52:42;0.50;;;0.50;;
20340;SDS011;10328;50.042;8.238;2022-10-16T06:55:08;0.40;;;0.40;;
20340;SDS011;10328;50.042;8.238;2022-10-16T06:57:35;0.50;;;0.50;;
20340;SDS011;10328;50.042;8.238;2022-10-16T07:00:01;0.60;;;0.60;;
20340;SDS011;10328;50.042;8.238;2022-10-16T07:02:28;0.47;;;0.47;;
20340;SDS011;10328;50.042;8.238;2022-10-16T07:04:55;0.60;;;0.50;;
20340;SDS011;10328;50.042;8.238;2022-10-16T07:07:22;0.50;;;0.50;;
20340;SDS011;10328;50.042;8.238;2022-10-16T07:09:50;0.60;;;0.57;;
20340;SDS011;10328;50.042;8.238;2022-10-16T07:12:17;0.40;;;0.40;;
20340;SDS011;10328;50.042;8.238;2022-10-16T07:14:43;0.45;;;0.40;;
20340;SDS011;10328;50.042;8.238;2022-10-16T07:17:10;0.50;;;0.50;;
20340;SDS011;10328;50.042;8.238;2022-10-16T07:19:36;0.55;;;0.55;;
20340;SDS011;10328;50.042;8.238;2022-10-16T07:22:02;0.70;;;0.70;;
20340;SDS011;10328;50.042;8.238;2022-10-16T07:24:29;0.80;;;0.70;;
20340;SDS011;10328;50.042;8.238;2022-10-16T07:26:55;0.50;;;0.50;;
20340;SDS011;10328;50.042;8.238;2022-10-16T07:29:22;0.40;;;0.40;;
20340;SDS011;10328;50.042;8.238;2022-10-16T07:31:48;0.68;;;0.40;;
20340;SDS011;10328;50.042;8.238;2022-10-16T07:34:16;0.50;;;0.50;;
20340;SDS011;10328;50.042;8.238;2022-10-16T07:36:44;0.50;;;0.50;;
20340;SDS011;10328;50.042;8.238;2022-10-16T07:39:10;0.80;;;0.40;;
20340;SDS011;10328;50.042;8.238;2022-10-16T07:41:36;0.50;;;0.50;;
20340;SDS011;10328;50.042;8.238;2022-10-16T07:44:03;0.88;;;0.50;;
20340;SDS011;10328;50.042;8.238;2022-10-16T07:46:29;0.40;;;0.40;;
20340;SDS011;10328;50.042;8.238;2022-10-16T07:48:56;0.47;;;0.47;;
20340;SDS011;10328;50.042;8.238;2022-10-16T07:51:23;0.50;;;0.50;;
20340;SDS011;10328;50.042;8.238;2022-10-16T07:53:50;0.40;;;0.40;;
20340;SDS011;10328;50.042;8.238;2022-10-16T07:56:18;0.40;;;0.40;;
20340;SDS011;10328;50.042;8.238;2022-10-16T07:58:44;0.40;;;0.40;;
20340;SDS011;10328;50.042;8.238;2022-10-16T08:01:12;1.02;;;0.82;;
20340;SDS011;10328;50.042;8.238;2022-10-16T08:03:44;0.60;;;0.40;;
20340;SDS011;10328;50.042;8.238;2022-10-16T08:06:12;0.60;;;0.60;;
20340;SDS011;10328;50.042;8.238;2022-10-16T08:08:39;0.60;;;0.60;;
20340;SDS011;10328;50.042;8.238;2022-10-16T08:11:05;0.30;;;0.30;;
20340;SDS011;10328;50.042;8.238;2022-10-16T08:13:32;0.55;;;0.50;;
20340;SDS011;10328;50.042;8.238;2022-10-16T08:15:58;0.50;;;0.50;;
20340;SDS011;10328;50.042;8.238;2022-10-16T08:18:24;0.55;;;0.50;;
20340;SDS011;10328;50.042;8.238;2022-10-16T08:20:55;0.28;;;0.28;;
20340;SDS011;10328;50.042;8.238;2022-10-16T08:23:23;0.80;;;0.47;;
20340;SDS011;10328;50.042;8.238;2022-10-16T08:25:52;0.50;;;0.50;;
20340;SDS011;10328;50.042;8.238;2022-10-16T08:28:19;0.40;;;0.40;;
20340;SDS011;10328;50.042;8.238;2022-10-16T08:30:46;0.60;;;0.50;;
20340;SDS011;10328;50.042;8.238;2022-10-16T08:33:12;0.50;;;0.50;;
20340;SDS011;10328;50.042;8.238;2022-10-16T08:35:39;0.40;;;0.40;;
20340;SDS011;10328;50.042;8.238;2022-10-16T08:38:05;0.60;;;0.50;;
20340;SDS011;10328;50.042;8.238;2022-10-16T08:40:33;0.50;;;0.50;;
20340;SDS011;10328;50.042;8.238;2022-10-16T08:48:48;0.43;;;0.43;;
20340;SDS011;10328;50.042;8.238;2022-10-16T08:51:18;0.50;;;0.50;;
20340;SDS011;10328;50.042;8.238;2022-10-16T08:54:21;1.00;;;0.90;;
20340;SDS011;10328;50.042;8.238;2022-10-16T08:56:54;0.88;;;0.70;;
20340;SDS011;10328;50.042;8.238;2022-10-16T08:59:21;1.75;;;1.20;;
20340;SDS011;10328;50.042;8.238;2022-10-16T09:01:49;3.10;;;1.95;;
20340;SDS011;10328;50.042;8.238;2022-10-16T09:04:24;1.95;;;1.30;;
20340;SDS011;10328;50.042;8.238;2022-10-16T09:07:18;1.48;;;1.20;;
20340;SDS011;10328;50.042;8.238;2022-10-16T09:18:19;0.70;;;0.57;;
20340;SDS011;10328;50.042;8.238;2022-10-16T09:20:58;0.80;;;0.80;;
20340;SDS011;10328;50.042;8.238;2022-10-16T09:23:40;1.50;;;1.25;;
20340;SDS011;10328;50.042;8.238;2022-10-16T09:26:09;2.63;;;1.77;;
20340;SDS011;10328;50.042;8.238;2022-10-16T09:28:39;2.40;;;1.65;;
20340;SDS011;10328;50.042;8.238;2022-10-16T09:31:10;4.03;;;2.78;;
20340;SDS011;10328;50.042;8.238;2022-10-16T09:33:39;2.97;;;2.10;;
20340;SDS011;10328;50.042;8.238;2022-10-16T09:36:08;4.68;;;3.00;;
20340;SDS011;10328;50.042;8.238;2022-10-16T09:38:35;6.22;;;2.70;;
20340;SDS011;10328;50.042;8.238;2022-10-16T09:41:10;4.32;;;3.10;;
20340;SDS011;10328;50.042;8.238;2022-10-16T09:43:41;4.60;;;2.90;;
20340;SDS011;10328;50.042;8.238;2022-10-16T09:48:59;3.40;;;2.15;;
20340;SDS011;10328;50.042;8.238;2022-10-16T09:51:33;4.05;;;2.20;;
20340;SDS011;10328;50.042;8.238;2022-10-16T09:56:37;3.85;;;2.20;;
20340;SDS011;10328;50.042;8.238;2022-10-16T09:59:11;4.55;;;1.90;;
20340;SDS011;10328;50.042;8.238;2022-10-16T10:01:38;2.55;;;1.70;;
20340;SDS011;10328;50.042;8.238;2022-10-16T10:04:06;4.55;;;2.38;;
20340;SDS011;10328;50.042;8.238;2022-10-16T10:06:34;4.15;;;1.88;;
20340;SDS011;10328;50.042;8.238;2022-10-16T10:11:45;3.85;;;2.10;;
20340;SDS011;10328;50.042;8.238;2022-10-16T10:14:16;4.07;;;2.20;;
20340;SDS011;10328;50.042;8.238;2022-10-16T10:16:47;3.88;;;2.38;;
20340;SDS011;10328;50.042;8.238;2022-10-16T10:19:14;2.75;;;2.03;;
20340;SDS011;10328;50.042;8.238;2022-10-16T10:21:45;4.47;;;2.00;;
20340;SDS011;10328;50.042;8.238;2022-10-16T10:24:13;4.03;;;1.90;;
20340;SDS011;10328;50.042;8.238;2022-10-16T10:27:02;3.28;;;1.75;;
20340;SDS011;10328;50.042;8.238;2022-10-16T10:29:38;5.18;;;2.25;;
20340;SDS011;10328;50.042;8.238;2022-10-16T10:32:26;3.40;;;2.20;;
20340;SDS011;10328;50.042;8.238;2022-10-16T10:40:51;5.72;;;2.03;;
20340;SDS011;10328;50.042;8.238;2022-10-16T10:46:07;4.18;;;1.83;;
20340;SDS011;10328;50.042;8.238;2022-10-16T10:48:46;4.28;;;1.90;;
20340;SDS011;10328;50.042;8.238;2022-10-16T10:54:10;3.28;;;2.10;;
20340;SDS011;10328;50.042;8.238;2022-10-16T10:57:01;4.53;;;2.22;;
20340;SDS011;10328;50.042;8.238;2022-10-16T11:05:07;3.08;;;1.90;;
20340;SDS011;10328;50.042;8.238;2022-10-16T11:16:11;4.25;;;1.90;;
20340;SDS011;10328;50.042;8.238;2022-10-16T11:18:50;4.07;;;1.95;;
20340;SDS011;10328;50.042;8.238;2022-10-16T11:21:20;3.50;;;2.20;;
20340;SDS011;10328;50.042;8.238;2022-10-16T11:26:20;4.43;;;2.10;;
20340;SDS011;10328;50.042;8.238;2022-10-16T11:28:48;2.15;;;1.95;;
20340;SDS011;10328;50.042;8.238;2022-10-16T11:31:17;3.58;;;1.70;;
20340;SDS011;10328;50.042;8.238;2022-10-16T11:33:51;3.72;;;2.03;;
20340;SDS011;10328;50.042;8.238;2022-10-16T11:36:23;3.20;;;1.70;;
20340;SDS011;10328;50.042;8.238;2022-10-16T11:41:49;3.03;;;1.70;;
20340;SDS011;10328;50.042;8.238;2022-10-16T11:50:17;2.60;;;1.50;;
20340;SDS011;10328;50.042;8.238;2022-10-16T11:55:48;2.30;;;1.70;;
20340;SDS011;10328;50.042;8.238;2022-10-16T11:58:28;2.45;;;1.48;;
20340;SDS011;10328;50.042;8.238;2022-10-16T12:01:07;2.63;;;1.60;;
20340;SDS011;10328;50.042;8.238;2022-10-16T12:06:27;2.15;;;1.60;;
20340;SDS011;10328;50.042;8.238;2022-10-16T12:08:58;2.30;;;1.60;;
20340;SDS011;10328;50.042;8.238;2022-10-16T12:13:52;2.45;;;1.90;;
20340;SDS011;10328;50.042;8.238;2022-10-16T12:16:34;1.65;;;1.50;;
20340;SDS011;10328;50.042;8.238;2022-10-16T12:19:16;2.55;;;1.60;;
20340;SDS011;10328;50.042;8.238;2022-10-16T12:21:43;2.95;;;1.60;;
20340;SDS011;10328;50.042;8.238;2022-10-16T12:27:03;2.30;;;1.67;;
20340;SDS011;10328;50.042;8.238;2022-10-16T12:29:33;4.15;;;1.92;;
20340;SDS011;10328;50.042;8.238;2022-10-16T12:32:00;2.75;;;1.83;;
20340;SDS011;10328;50.042;8.238;2022-10-16T12:34:39;4.03;;;2.60;;
20340;SDS011;10328;50.042;8.238;2022-10-16T12:37:18;2.20;;;1.45;;
20340;SDS011;10328;50.042;8.238;2022-10-16T12:39:47;4.13;;;1.70;;
20340;SDS011;10328;50.042;8.238;2022-10-16T12:42:22;3.38;;;2.22;;
20340;SDS011;10328;50.042;8.238;2022-10-16T12:44:49;5.00;;;1.70;;
20340;SDS011;10328;50.042;8.238;2022-10-16T12:47:24;2.72;;;1.77;;
20340;SDS011;10328;50.042;8.238;2022-10-16T12:50:02;2.10;;;1.63;;
20340;SDS011;10328;50.042;8.238;2022-10-16T12:52:37;2.35;;;1.55;;
20340;SDS011;10328;50.042;8.238;2022-10-16T12:55:04;2.10;;;1.80;;
20340;SDS011;10328;50.042;8.238;2022-10-16T12:57:35;2.00;;;1.80;;
20340;SDS011;10328;50.042;8.238;2022-10-16T13:06:05;1.75;;;1.38;;
20340;SDS011;10328;50.042;8.238;2022-10-16T13:20:31;2.80;;;1.60;;
20340;SDS011;10328;50.042;8.238;2022-10-16T13:25:40;3.05;;;1.70;;
20340;SDS011;10328;50.042;8.238;2022-10-16T13:28:10;1.63;;;1.40;;
20340;SDS011;10328;50.042;8.238;2022-10-16T13:30:41;2.92;;;1.30;;
20340;SDS011;10328;50.042;8.238;2022-10-16T13:33:21;1.83;;;1.50;;
20340;SDS011;10328;50.042;8.238;2022-10-16T13:35:54;1.25;;;1.15;;
20340;SDS011;10328;50.042;8.238;2022-10-16T13:38:22;1.52;;;1.40;;
20340;SDS011;10328;50.042;8.238;2022-10-16T13:40:57;2.08;;;1.63;;
20340;SDS011;10328;50.042;8.238;2022-10-16T13:43:34;1.60;;;1.30;;
20340;SDS011;10328;50.042;8.238;2022-10-16T13:46:03;2.25;;;1.40;;
20340;SDS011;10328;50.042;8.238;2022-10-16T13:48:31;3.42;;;1.77;;
20340;SDS011;10328;50.042;8.238;2022-10-16T13:50:59;3.10;;;1.80;;
20340;SDS011;10328;50.042;8.238;2022-10-16T13:53:31;5.07;;;1.50;;
20340;SDS011;10328;50.042;8.238;2022-10-16T13:55:59;2.22;;;1.70;;
20340;SDS011;10328;50.042;8.238;2022-10-16T13:58:26;3.38;;;1.65;;
20340;SDS011;10328;50.042;8.238;2022-10-16T14:01:03;2.60;;;1.90;;
20340;SDS011;10328;50.042;8.238;2022-10-16T14:03:31;2.13;;;1.35;;
20340;SDS011;10328;50.042;8.238;2022-10-16T14:06:00;2.15;;;1.60;;
20340;SDS011;10328;50.042;8.238;2022-10-16T14:08:28;1.95;;;1.60;;
20340;SDS011;10328;50.042;8.238;2022-10-16T14:10:57;2.55;;;1.80;;
20340;SDS011;10328;50.042;8.238;2022-10-16T14:16:05;2.40;;;1.60;;
20340;SDS011;10328;50.042;8.238;2022-10-16T14:18:33;2.28;;;1.50;;
20340;SDS011;10328;50.042;8.238;2022-10-16T14:21:04;2.42;;;1.40;;
20340;SDS011;10328;50.042;8.238;2022-10-16T14:23:36;2.67;;;1.50;;
20340;SDS011;10328;50.042;8.238;2022-10-16T14:28:36;3.45;;;1.80;;
20340;SDS011;10328;50.042;8.238;2022-10-16T14:31:17;2.80;;;1.58;;
20340;SDS011;10328;50.042;8.238;2022-10-16T14:33:47;2.10;;;1.65;;
20340;SDS011;10328;50.042;8.238;2022-10-16T14:36:13;1.83;;;1.50;;
20340;SDS011;10328;50.042;8.238;2022-10-16T14:38:41;2.88;;;1.48;;
20340;SDS011;10328;50.042;8.238;2022-10-16T14:41:09;1.70;;;1.30;;
20340;SDS011;10328;50.042;8.238;2022-10-16T14:43:39;2.40;;;1.60;;
20340;SDS011;10328;50.042;8.238;2022-10-16T14:46:14;3.03;;;1.80;;
20340;SDS011;10328;50.042;8.238;2022-10-16T14:48:42;2.28;;;1.98;;
20340;SDS011;10328;50.042;8.238;2022-10-16T14:51:13;5.38;;;3.60;;
20340;SDS011;10328;50.042;8.238;2022-10-16T14:53:43;3.00;;;2.08;;
20340;SDS011;10328;50.042;8.238;2022-10-16T14:56:19;2.88;;;1.90;;
20340;SDS011;10328;50.042;8.238;2022-10-16T14:58:48;2.80;;;1.83;;
20340;SDS011;10328;50.042;8.238;2022-10-16T15:01:16;2.47;;;1.70;;
20340;SDS011;10328;50.042;8.238;2022-10-16T15:03:42;3.50;;;1.70;;
20340;SDS011;10328;50.042;8.238;2022-10-16T15:06:10;3.55;;;2.08;;
20340;SDS011;10328;50.042;8.238;2022-10-16T15:08:38;3.97;;;2.40;;
20340;SDS011;10328;50.042;8.238;2022-10-16T15:11:04;2.83;;;1.83;;
20340;SDS011;10328;50.042;8.238;2022-10-16T15:13:31;2.28;;;2.08;;
20340;SDS011;10328;50.042;8.238;2022-10-16T15:15:58;4.22;;;2.03;;
20340;SDS011;10328;50.042;8.238;2022-10-16T15:18:25;2.72;;;1.83;;
20340;SDS011;10328;50.042;8.238;2022-10-16T15:20:51;2.28;;;1.67;;
20340;SDS011;10328;50.042;8.238;2022-10-16T15:23:19;1.70;;;1.60;;
20340;SDS011;10328;50.042;8.238;2022-10-16T15:25:51;2.22;;;2.00;;
20340;SDS011;10328;50.042;8.238;2022-10-16T15:28:19;2.70;;;2.10;;
20340;SDS011;10328;50.042;8.238;2022-10-16T15:30:46;2.35;;;1.85;;
20340;SDS011;10328;50.042;8.238;2022-10-16T15:33:16;3.35;;;1.80;;
20340;SDS011;10328;50.042;8.238;2022-10-16T15:35:47;3.05;;;2.10;;
20340;SDS011;10328;50.042;8.238;2022-10-16T15:38:14;2.85;;;2.03;;
20340;SDS011;10328;50.042;8.238;2022-10-16T15:40:41;3.58;;;2.70;;
20340;SDS011;10328;50.042;8.238;2022-10-16T15:43:07;3.58;;;2.47;;
20340;SDS011;10328;50.042;8.238;2022-10-16T15:45:34;3.78;;;2.38;;
20340;SDS011;10328;50.042;8.238;2022-10-16T15:48:01;2.78;;;2.25;;
20340;SDS011;10328;50.042;8.238;2022-10-16T15:50:27;2.72;;;2.20;;
20340;SDS011;10328;50.042;8.238;2022-10-16T15:52:54;2.42;;;1.98;;
20340;SDS011;10328;50.042;8.238;2022-10-16T15:55:20;2.40;;;1.95;;
20340;SDS011;10328;50.042;8.238;2022-10-16T15:57:46;2.70;;;2.35;;
20340;SDS011;10328;50.042;8.238;2022-10-16T16:00:14;3.10;;;2.30;;
20340;SDS011;10328;50.042;8.238;2022-10-16T16:02:42;4.60;;;2.50;;
20340;SDS011;10328;50.042;8.238;2022-10-16T16:05:09;2.47;;;2.28;;
20340;SDS011;10328;50.042;8.238;2022-10-16T16:07:37;4.68;;;2.63;;
20340;SDS011;10328;50.042;8.238;2022-10-16T16:10:05;7.32;;;3.67;;
20340;SDS011;10328;50.042;8.238;2022-10-16T16:12:33;3.00;;;2.53;;
20340;SDS011;10328;50.042;8.238;2022-10-16T16:14:59;3.95;;;2.70;;
20340;SDS011;10328;50.042;8.238;2022-10-16T16:17:31;3.13;;;2.63;;
20340;SDS011;10328;50.042;8.238;2022-10-16T16:19:58;4.38;;;2.72;;
20340;SDS011;10328;50.042;8.238;2022-10-16T16:22:24;5.40;;;2.70;;
20340;SDS011;10328;50.042;8.238;2022-10-16T16:24:51;3.47;;;2.67;;
20340;SDS011;10328;50.042;8.238;2022-10-16T16:27:17;10.55;;;2.95;;
20340;SDS011;10328;50.042;8.238;2022-10-16T16:29:46;5.03;;;3.15;;
20340;SDS011;10328;50.042;8.238;2022-10-16T16:32:12;4.88;;;2.83;;
20340;SDS011;10328;50.042;8.238;2022-10-16T16:34:39;4.03;;;3.00;;
20340;SDS011;10328;50.042;8.238;2022-10-16T16:37:05;4.30;;;3.17;;
20340;SDS011;10328;50.042;8.238;2022-10-16T16:39:31;5.65;;;2.78;;